createdAt,value
2023-05-19T00:02:20.774Z,5.82
2023-05-19T00:04:48.286Z,5.25
2023-05-19T00:07:17.521Z,5.65
2023-05-19T00:09:44.435Z,5.43
2023-05-19T00:12:12.013Z,5.82
2023-05-19T00:14:38.823Z,5.13
2023-05-19T00:17:05.841Z,6.13
2023-05-19T00:19:33.436Z,6.90
2023-05-19T00:22:00.259Z,5.78
2023-05-19T00:24:26.992Z,6.07
2023-05-19T00:26:53.653Z,6.57
2023-05-19T00:29:20.471Z,5.80
2023-05-19T00:31:47.286Z,7.03
2023-05-19T00:34:14.113Z,6.68
2023-05-19T00:36:40.737Z,6.80
2023-05-19T00:39:07.541Z,7.50
2023-05-19T00:41:34.258Z,7.47
2023-05-19T00:44:00.939Z,7.05
2023-05-19T00:46:27.705Z,6.30
2023-05-19T00:48:54.463Z,9.13
2023-05-19T00:51:21.117Z,6.72
2023-05-19T00:53:49.210Z,7.47
2023-05-19T00:56:17.349Z,6.32
2023-05-19T00:58:44.621Z,5.35
2023-05-19T01:01:12.103Z,6.95
2023-05-19T01:03:40.244Z,5.43
2023-05-19T01:06:07.186Z,6.85
2023-05-19T01:08:34.780Z,7.15
2023-05-19T01:11:01.417Z,7.35
2023-05-19T01:13:28.522Z,6.80
2023-05-19T01:16:18.960Z,8.20
2023-05-19T01:18:56.022Z,8.25
2023-05-19T01:21:55.516Z,7.20
2023-05-19T01:24:53.319Z,7.30
2023-05-19T01:27:31.450Z,6.85
2023-05-19T01:30:36.916Z,7.00
2023-05-19T01:33:07.285Z,6.65
2023-05-19T01:35:36.144Z,6.93
2023-05-19T01:38:03.356Z,6.03
2023-05-19T01:40:30.795Z,5.85
2023-05-19T01:42:59.050Z,5.72
2023-05-19T01:45:26.791Z,6.03
2023-05-19T01:47:54.970Z,5.38
2023-05-19T01:50:21.789Z,6.68
2023-05-19T01:52:48.442Z,8.30
2023-05-19T01:55:15.187Z,5.50
2023-05-19T01:58:05.429Z,5.22
2023-05-19T02:00:53.931Z,6.07
2023-05-19T02:03:32.989Z,5.50
2023-05-19T02:06:22.285Z,6.35
2023-05-19T02:09:02.048Z,6.13
2023-05-19T02:11:37.957Z,5.63
2023-05-19T02:14:24.605Z,5.20
2023-05-19T02:16:51.265Z,6.20
2023-05-19T02:19:26.618Z,6.15
2023-05-19T02:21:53.313Z,7.45
2023-05-19T02:24:22.720Z,6.30
2023-05-19T02:26:50.366Z,6.75
2023-05-19T02:29:17.094Z,7.00
2023-05-19T02:31:43.955Z,6.65
2023-05-19T02:34:10.846Z,6.70
2023-05-19T02:36:41.231Z,5.97
2023-05-19T02:39:08.736Z,6.80
2023-05-19T02:41:35.423Z,6.68
2023-05-19T02:44:02.048Z,7.13
2023-05-19T02:46:28.780Z,6.35
2023-05-19T02:48:55.543Z,7.18
2023-05-19T02:51:22.359Z,5.65
2023-05-19T02:53:49.193Z,6.78
2023-05-19T02:56:15.902Z,7.07
2023-05-19T02:58:44.024Z,8.13
2023-05-19T03:01:11.051Z,8.15
2023-05-19T03:03:37.806Z,7.55
2023-05-19T03:06:04.903Z,7.63
2023-05-19T03:08:31.530Z,7.15
2023-05-19T03:10:58.136Z,6.25
2023-05-19T03:13:24.809Z,8.80
2023-05-19T03:15:51.471Z,7.90
2023-05-19T03:18:18.259Z,10.30
2023-05-19T03:20:45.096Z,6.28
2023-05-19T03:23:11.932Z,9.68
2023-05-19T03:25:38.611Z,9.77
2023-05-19T03:28:05.505Z,7.82
2023-05-19T03:30:32.313Z,7.82
2023-05-19T03:33:01.496Z,8.43
2023-05-19T03:35:28.367Z,8.15
2023-05-19T03:37:55.002Z,8.13
2023-05-19T03:40:21.727Z,7.93
2023-05-19T03:42:48.378Z,7.10
2023-05-19T03:45:15.118Z,8.73
2023-05-19T03:47:41.967Z,7.75
2023-05-19T03:50:09.711Z,7.90
2023-05-19T03:52:36.303Z,7.07
2023-05-19T03:55:03.037Z,8.05
2023-05-19T03:57:29.649Z,7.97
2023-05-19T03:59:56.387Z,9.25
2023-05-19T04:02:23.092Z,7.30
2023-05-19T04:04:51.102Z,7.78
2023-05-19T04:07:17.906Z,7.85
2023-05-19T04:09:45.104Z,7.40
2023-05-19T04:12:11.910Z,6.78
2023-05-19T04:14:38.538Z,8.45
2023-05-19T04:17:05.371Z,7.80
2023-05-19T04:19:32.109Z,7.22
2023-05-19T04:21:58.873Z,7.13
2023-05-19T04:24:26.048Z,8.95
2023-05-19T04:26:53.312Z,7.78
2023-05-19T04:29:20.461Z,8.13
2023-05-19T04:31:49.139Z,8.68
2023-05-19T04:34:19.704Z,7.55
2023-05-19T04:36:46.363Z,8.90
2023-05-19T04:39:14.328Z,8.35
2023-05-19T04:41:41.009Z,8.43
2023-05-19T04:44:09.263Z,9.27
2023-05-19T04:46:36.051Z,7.97
2023-05-19T04:49:03.053Z,7.93
2023-05-19T04:51:31.278Z,7.90
2023-05-19T04:53:58.201Z,8.23
2023-05-19T04:56:24.826Z,9.85
2023-05-19T04:58:53.473Z,9.45
2023-05-19T05:01:22.560Z,9.68
2023-05-19T05:03:49.423Z,9.55
2023-05-19T05:06:16.238Z,8.68
2023-05-19T05:08:42.987Z,9.88
2023-05-19T05:11:10.040Z,8.18
2023-05-19T05:13:37.010Z,8.73
2023-05-19T05:16:06.475Z,8.50
2023-05-19T05:18:34.302Z,8.93
2023-05-19T05:21:01.499Z,8.85
2023-05-19T05:23:28.434Z,9.15
2023-05-19T05:25:55.356Z,9.00
2023-05-19T05:28:22.001Z,9.40
2023-05-19T05:30:49.307Z,11.05
2023-05-19T05:33:17.202Z,8.63
2023-05-19T05:35:43.983Z,9.38
2023-05-19T05:38:11.912Z,8.60
2023-05-19T05:40:39.070Z,9.30
2023-05-19T05:43:05.730Z,8.35
2023-05-19T05:45:32.730Z,10.50
2023-05-19T05:47:59.833Z,7.22
2023-05-19T05:50:26.839Z,10.30
2023-05-19T05:52:53.611Z,7.47
2023-05-19T05:55:20.961Z,7.57
2023-05-19T05:57:48.624Z,8.13
2023-05-19T06:00:15.774Z,7.05
2023-05-19T06:02:44.609Z,7.18
2023-05-19T06:05:12.350Z,8.15
2023-05-19T06:07:39.736Z,7.63
2023-05-19T06:10:07.426Z,7.55
2023-05-19T06:12:34.520Z,7.50
2023-05-19T06:15:02.985Z,8.05
2023-05-19T06:17:29.742Z,8.82
2023-05-19T06:19:56.560Z,7.22
2023-05-19T06:22:23.262Z,7.28
2023-05-19T06:24:49.912Z,7.13
2023-05-19T06:27:16.616Z,8.40
2023-05-19T06:29:43.330Z,7.45
2023-05-19T06:32:10.006Z,9.85
2023-05-19T06:34:38.185Z,8.07
2023-05-19T06:37:04.887Z,7.25
2023-05-19T06:39:31.761Z,8.18
2023-05-19T06:41:58.542Z,7.40
2023-05-19T06:44:25.210Z,7.75
2023-05-19T06:46:56.070Z,6.55
2023-05-19T06:49:22.888Z,6.03
2023-05-19T06:51:49.578Z,5.05
2023-05-19T06:54:16.545Z,6.22
2023-05-19T06:56:43.269Z,5.63
2023-05-19T06:59:10.227Z,7.47
2023-05-19T07:01:37.007Z,6.38
2023-05-19T07:04:04.611Z,5.95
2023-05-19T07:06:31.370Z,6.40
2023-05-19T07:08:58.165Z,6.05
2023-05-19T07:11:26.243Z,4.80
2023-05-19T07:13:53.196Z,6.10
2023-05-19T07:16:20.101Z,4.55
2023-05-19T07:18:47.231Z,4.82
2023-05-19T07:21:14.102Z,5.85
2023-05-19T07:23:41.016Z,4.82
2023-05-19T07:26:07.642Z,4.53
2023-05-19T07:28:34.456Z,4.50
2023-05-19T07:31:01.352Z,5.50
2023-05-19T07:33:28.115Z,5.22
2023-05-19T07:35:54.844Z,6.28
2023-05-19T07:38:21.604Z,5.13
2023-05-19T07:40:51.826Z,6.03
2023-05-19T07:43:18.524Z,5.70
2023-05-19T07:45:45.296Z,6.10
2023-05-19T07:48:12.123Z,6.22
2023-05-19T07:50:38.830Z,5.32
2023-05-19T07:53:05.541Z,4.43
2023-05-19T07:55:32.235Z,6.30
2023-05-19T07:57:58.979Z,5.07
2023-05-19T08:00:26.206Z,6.75
2023-05-19T08:02:53.412Z,5.90
2023-05-19T08:05:20.221Z,5.40
2023-05-19T08:07:47.018Z,4.40
2023-05-19T08:10:13.685Z,4.97
2023-05-19T08:12:40.999Z,7.30
2023-05-19T08:15:08.424Z,5.53
2023-05-19T08:17:35.152Z,5.28
2023-05-19T08:20:01.877Z,5.72
2023-05-19T08:22:28.615Z,6.25
2023-05-19T08:24:55.574Z,6.22
2023-05-19T08:27:22.461Z,7.00
2023-05-19T08:29:49.313Z,7.43
2023-05-19T08:32:17.251Z,6.95
2023-05-19T08:34:44.968Z,8.15
2023-05-19T08:37:12.056Z,9.65
2023-05-19T08:39:38.905Z,8.43
2023-05-19T08:42:07.448Z,9.18
2023-05-19T08:44:34.359Z,8.65
2023-05-19T08:47:03.370Z,7.32
2023-05-19T08:49:32.702Z,8.25
2023-05-19T08:52:10.092Z,7.45
2023-05-19T08:54:41.475Z,8.02
2023-05-19T08:57:09.020Z,7.75
2023-05-19T08:59:38.585Z,7.60
2023-05-19T09:02:05.690Z,8.38
2023-05-19T09:04:32.481Z,9.68
2023-05-19T09:07:02.622Z,8.93
2023-05-19T09:09:30.166Z,8.98
2023-05-19T09:11:57.060Z,8.43
2023-05-19T09:14:23.898Z,9.43
2023-05-19T09:16:52.683Z,8.18
2023-05-19T09:19:21.278Z,8.63
2023-05-19T09:21:58.101Z,9.05
2023-05-19T09:24:25.562Z,9.25
2023-05-19T09:26:52.172Z,8.23
2023-05-19T09:29:19.464Z,9.32
2023-05-19T09:32:04.482Z,8.60
2023-05-19T09:34:31.277Z,9.02
2023-05-19T09:36:59.628Z,8.30
2023-05-19T09:39:26.359Z,10.20
2023-05-19T09:41:54.056Z,9.88
2023-05-19T09:47:03.382Z,10.30
2023-05-19T09:49:31.007Z,12.73
2023-05-19T09:51:59.384Z,8.40
2023-05-19T09:54:28.377Z,8.13
2023-05-19T09:56:59.031Z,7.22
2023-05-19T09:59:26.166Z,8.20
2023-05-19T10:01:56.866Z,7.10
2023-05-19T10:04:24.385Z,7.57
2023-05-19T10:06:54.356Z,9.07
2023-05-19T10:09:25.098Z,8.75
2023-05-19T10:11:54.008Z,8.38
2023-05-19T10:14:24.666Z,6.88
2023-05-19T10:16:52.589Z,9.00
2023-05-19T10:19:21.165Z,12.13
2023-05-19T10:21:47.926Z,10.10
2023-05-19T10:24:14.580Z,9.55
2023-05-19T10:26:44.000Z,9.85
2023-05-19T10:29:10.862Z,7.82
2023-05-19T10:31:37.700Z,8.43
2023-05-19T10:34:29.342Z,7.88
2023-05-19T10:37:04.876Z,8.15
2023-05-19T10:39:35.994Z,8.00
2023-05-19T10:42:25.046Z,9.32
2023-05-19T10:45:11.475Z,8.90
2023-05-19T10:47:40.093Z,9.70
2023-05-19T10:50:07.567Z,8.30
2023-05-19T10:52:37.508Z,9.40
2023-05-19T10:55:04.800Z,8.35
2023-05-19T10:57:33.203Z,9.43
2023-05-19T11:00:08.553Z,10.63
2023-05-19T11:02:43.795Z,11.40
2023-05-19T11:05:14.776Z,9.15
2023-05-19T11:07:43.406Z,9.18
2023-05-19T11:10:10.307Z,10.40
2023-05-19T11:12:45.129Z,8.98
2023-05-19T11:15:13.494Z,14.50
2023-05-19T11:17:42.094Z,14.15
2023-05-19T11:20:11.068Z,10.52
2023-05-19T11:22:42.714Z,9.57
2023-05-19T11:25:09.836Z,9.55
2023-05-19T11:27:38.376Z,9.98
2023-05-19T11:30:14.335Z,9.35
2023-05-19T11:32:42.862Z,8.52
2023-05-19T11:35:10.197Z,10.23
2023-05-19T11:37:36.892Z,8.10
2023-05-19T11:40:07.615Z,8.55
2023-05-19T11:42:34.898Z,9.50
2023-05-19T11:45:01.731Z,9.32
2023-05-19T11:47:28.440Z,9.00
2023-05-19T11:49:56.582Z,9.40
2023-05-19T11:52:24.129Z,9.73
2023-05-19T11:54:50.978Z,9.63
2023-05-19T11:57:18.231Z,9.65
2023-05-19T11:59:47.847Z,9.48
2023-05-19T12:02:19.160Z,9.23
2023-05-19T12:04:46.796Z,11.27
2023-05-19T12:07:14.544Z,9.85
2023-05-19T12:09:41.230Z,9.10
2023-05-19T12:12:07.991Z,9.48
2023-05-19T12:14:34.639Z,11.40
2023-05-19T12:17:11.219Z,10.55
2023-05-19T12:19:38.674Z,11.15
2023-05-19T12:22:06.309Z,10.30
2023-05-19T12:24:34.629Z,11.00
2023-05-19T12:27:23.710Z,10.98
2023-05-19T12:29:52.383Z,11.63
2023-05-19T12:32:19.657Z,11.65
2023-05-19T12:34:46.416Z,10.38
2023-05-19T12:37:13.107Z,10.65
2023-05-19T12:39:40.617Z,9.35
2023-05-19T12:42:08.810Z,10.02
2023-05-19T12:44:52.341Z,9.45
2023-05-19T12:47:20.122Z,8.88
2023-05-19T12:49:56.596Z,10.57
2023-05-19T12:52:23.778Z,10.80
2023-05-19T12:54:52.225Z,9.70
2023-05-19T12:57:21.052Z,10.02
2023-05-19T12:59:49.228Z,9.65
2023-05-19T13:02:16.373Z,9.85
2023-05-19T13:04:43.066Z,10.93
2023-05-19T13:07:09.736Z,12.07
2023-05-19T13:09:36.457Z,11.02
2023-05-19T13:12:04.753Z,11.27
2023-05-19T13:14:31.510Z,12.02
2023-05-19T13:16:58.183Z,11.55
2023-05-19T13:19:26.104Z,10.38
2023-05-19T13:21:52.967Z,10.07
2023-05-19T13:24:28.801Z,10.07
2023-05-19T13:26:56.217Z,11.57
2023-05-19T13:29:22.984Z,12.57
2023-05-19T13:31:49.699Z,11.00
2023-05-19T13:34:16.976Z,10.23
2023-05-19T13:36:48.222Z,8.95
2023-05-19T13:39:17.984Z,8.63
2023-05-19T13:41:44.690Z,8.93
2023-05-19T13:44:11.334Z,11.43
2023-05-19T13:49:10.620Z,8.63
2023-05-19T13:51:37.698Z,10.55
2023-05-19T13:54:04.954Z,10.65
2023-05-19T13:56:31.827Z,10.98
2023-05-19T13:58:58.863Z,9.63
2023-05-19T14:01:25.648Z,9.48
2023-05-19T14:03:52.617Z,8.25
2023-05-19T14:06:19.630Z,11.18
2023-05-19T14:08:46.598Z,9.30
2023-05-19T14:11:21.604Z,11.35
2023-05-19T14:13:52.359Z,13.38
2023-05-19T14:16:20.397Z,11.82
2023-05-19T14:18:47.349Z,10.40
2023-05-19T14:21:14.408Z,8.73
2023-05-19T14:23:41.118Z,9.80
2023-05-19T14:26:07.726Z,11.88
2023-05-19T14:28:34.396Z,10.57
2023-05-19T14:31:01.002Z,12.30
2023-05-19T14:33:27.732Z,11.52
2023-05-19T14:35:55.326Z,10.73
2023-05-19T14:38:22.102Z,9.95
2023-05-19T14:40:48.855Z,11.93
2023-05-19T14:43:15.719Z,11.95
2023-05-19T14:45:42.537Z,9.88
2023-05-19T14:48:11.745Z,10.20
2023-05-19T14:50:39.108Z,11.68
2023-05-19T14:53:05.759Z,11.18
2023-05-19T14:55:32.414Z,13.27
2023-05-19T14:57:59.088Z,12.90
2023-05-19T15:00:26.903Z,11.57
2023-05-19T15:02:54.005Z,11.02
2023-05-19T15:05:23.320Z,10.63
2023-05-19T15:07:50.408Z,13.27
2023-05-19T15:10:20.422Z,11.73
2023-05-19T15:12:49.553Z,10.35
2023-05-19T15:15:19.095Z,10.65
2023-05-19T15:17:47.918Z,9.70
2023-05-19T15:20:21.211Z,8.80
2023-05-19T15:22:48.618Z,8.32
2023-05-19T15:25:15.514Z,10.82
2023-05-19T15:27:42.382Z,9.80
2023-05-19T15:30:09.610Z,9.27
2023-05-19T15:32:36.422Z,10.85
2023-05-19T15:35:06.110Z,10.93
2023-05-19T15:37:33.196Z,9.35
2023-05-19T15:39:59.967Z,9.57
2023-05-19T15:42:26.931Z,9.38
2023-05-19T15:44:53.702Z,9.70
2023-05-19T15:47:20.629Z,9.80
2023-05-19T15:49:47.700Z,9.15
2023-05-19T15:52:14.436Z,11.07
2023-05-19T15:54:41.128Z,9.55
2023-05-19T15:57:08.127Z,10.55
2023-05-19T15:59:35.004Z,8.13
2023-05-19T16:02:01.753Z,11.23
2023-05-19T16:04:28.672Z,9.75
2023-05-19T16:06:55.465Z,10.10
2023-05-19T16:09:22.329Z,10.57
2023-05-19T16:11:49.076Z,10.35
2023-05-19T16:14:15.866Z,10.43
2023-05-19T16:16:44.310Z,10.82
2023-05-19T16:19:11.477Z,8.98
2023-05-19T16:21:38.269Z,12.32
2023-05-19T16:24:05.181Z,11.13
2023-05-19T16:26:34.209Z,8.63
2023-05-19T16:29:00.875Z,7.63
2023-05-19T16:31:28.229Z,9.55
2023-05-19T16:33:55.055Z,12.15
2023-05-19T16:36:22.747Z,11.52
2023-05-19T16:38:49.569Z,9.77
2023-05-19T16:41:16.312Z,9.68
2023-05-19T16:43:43.093Z,9.90
2023-05-19T16:46:11.969Z,12.10
2023-05-19T16:48:38.828Z,11.05
2023-05-19T16:51:05.792Z,9.88
2023-05-19T16:53:32.495Z,8.98
2023-05-19T16:55:59.230Z,9.50
2023-05-19T16:58:27.958Z,8.45
2023-05-19T17:00:56.789Z,7.97
2023-05-19T17:03:23.981Z,9.77
2023-05-19T17:05:50.819Z,7.38
2023-05-19T17:08:17.873Z,9.95
2023-05-19T17:10:45.161Z,11.23
2023-05-19T17:13:11.870Z,11.55
2023-05-19T17:15:39.998Z,10.20
2023-05-19T17:18:08.413Z,8.38
2023-05-19T17:20:35.414Z,7.13
2023-05-19T17:23:02.321Z,10.07
2023-05-19T17:25:29.040Z,9.73
2023-05-19T17:27:56.241Z,9.90
2023-05-19T17:30:22.972Z,8.52
2023-05-19T17:32:49.897Z,10.77
2023-05-19T17:35:16.954Z,8.18
2023-05-19T17:37:43.572Z,6.13
2023-05-19T17:40:11.143Z,8.15
2023-05-19T17:42:37.752Z,8.77
2023-05-19T17:45:07.664Z,9.48
2023-05-19T17:47:34.656Z,8.02
2023-05-19T17:50:01.489Z,9.52
2023-05-19T17:52:28.435Z,8.30
2023-05-19T17:54:55.480Z,8.43
2023-05-19T17:57:23.675Z,9.02
2023-05-19T17:59:50.703Z,7.97
2023-05-19T18:02:18.504Z,6.78
2023-05-19T18:04:45.680Z,7.30
2023-05-19T18:07:12.446Z,8.68
2023-05-19T18:09:39.569Z,7.13
2023-05-19T18:12:06.655Z,7.85
2023-05-19T18:14:33.254Z,7.47
2023-05-19T18:17:00.478Z,8.32
2023-05-19T18:19:27.238Z,9.00
2023-05-19T18:21:53.935Z,9.38
2023-05-19T18:24:20.614Z,11.73
2023-05-19T18:26:47.384Z,9.90
2023-05-19T18:29:14.626Z,9.57
2023-05-19T18:31:41.742Z,7.85
2023-05-19T18:34:09.168Z,8.23
2023-05-19T18:36:35.980Z,8.05
2023-05-19T18:39:03.161Z,7.43
2023-05-19T18:41:30.165Z,6.43
2023-05-19T18:43:56.817Z,7.30
2023-05-19T18:46:23.562Z,8.57
2023-05-19T18:48:50.622Z,8.07
2023-05-19T18:51:18.615Z,8.43
2023-05-19T18:53:46.943Z,6.50
2023-05-19T18:56:15.167Z,8.55
2023-05-19T18:58:42.260Z,7.20
2023-05-19T19:01:09.078Z,6.40
2023-05-19T19:03:35.815Z,7.97
2023-05-19T19:06:05.748Z,8.70
2023-05-19T19:08:32.367Z,8.10
2023-05-19T19:11:01.030Z,7.40
2023-05-19T19:13:28.300Z,10.90
2023-05-19T19:15:55.193Z,8.55
2023-05-19T19:18:21.977Z,8.10
2023-05-19T19:20:48.735Z,8.45
2023-05-19T19:23:15.310Z,6.93
2023-05-19T19:25:42.006Z,8.57
2023-05-19T19:28:08.840Z,8.32
2023-05-19T19:30:35.907Z,7.13
2023-05-19T19:33:04.653Z,7.90
2023-05-19T19:35:32.088Z,8.93
2023-05-19T19:37:58.893Z,8.07
2023-05-19T19:40:25.656Z,7.55
2023-05-19T19:42:52.355Z,8.43
2023-05-19T19:45:20.721Z,7.50
2023-05-19T19:47:47.417Z,7.88
2023-05-19T19:50:14.387Z,7.40
2023-05-19T19:52:41.211Z,8.30
2023-05-19T19:55:08.465Z,7.95
2023-05-19T19:57:35.587Z,8.93
2023-05-19T20:00:08.343Z,8.48
2023-05-19T20:02:41.066Z,9.02
2023-05-19T20:05:12.590Z,8.30
2023-05-19T20:07:39.243Z,8.68
2023-05-19T20:10:06.559Z,8.27
2023-05-19T20:12:33.251Z,8.27
2023-05-19T20:14:59.907Z,7.15
2023-05-19T20:17:26.862Z,7.13
2023-05-19T20:19:53.550Z,7.00
2023-05-19T20:22:20.224Z,8.45
2023-05-19T20:24:46.865Z,7.97
2023-05-19T20:27:13.551Z,7.32
2023-05-19T20:29:40.493Z,8.00
2023-05-19T20:32:07.306Z,7.25
2023-05-19T20:34:33.968Z,7.53
2023-05-19T20:37:01.261Z,7.13
2023-05-19T20:39:28.205Z,6.75
2023-05-19T20:41:54.836Z,6.63
2023-05-19T20:44:21.598Z,6.88
2023-05-19T20:46:48.333Z,8.85
2023-05-19T20:49:15.114Z,8.20
2023-05-19T20:51:41.858Z,6.97
2023-05-19T20:54:08.511Z,8.02
2023-05-19T20:56:35.256Z,6.82
2023-05-19T20:59:02.087Z,8.10
2023-05-19T21:01:29.840Z,7.03
2023-05-19T21:03:56.679Z,6.85
2023-05-19T21:06:23.367Z,6.78
2023-05-19T21:08:50.438Z,7.28
2023-05-19T21:11:17.062Z,9.65
2023-05-19T21:13:44.021Z,8.32
2023-05-19T21:16:10.683Z,6.93
2023-05-19T21:18:37.448Z,7.00
2023-05-19T21:21:04.497Z,6.85
2023-05-19T21:23:31.146Z,7.88
2023-05-19T21:25:59.496Z,7.38
2023-05-19T21:28:26.452Z,7.00
2023-05-19T21:30:53.144Z,7.50
2023-05-19T21:33:19.773Z,6.32
2023-05-19T21:35:46.776Z,6.15
2023-05-19T21:38:23.251Z,7.03
2023-05-19T21:40:51.130Z,7.13
2023-05-19T21:43:17.959Z,5.78
2023-05-19T21:45:44.731Z,6.45
2023-05-19T21:48:11.561Z,5.95
2023-05-19T21:50:38.623Z,8.73
2023-05-19T21:53:05.537Z,7.93
2023-05-19T21:55:32.262Z,6.40
2023-05-19T21:58:00.314Z,4.95
2023-05-19T22:00:28.931Z,5.22
2023-05-19T22:02:55.792Z,5.10
2023-05-19T22:05:22.599Z,5.97
2023-05-19T22:07:49.350Z,4.88
2023-05-19T22:10:16.024Z,6.07
2023-05-19T22:12:42.709Z,5.28
2023-05-19T22:15:10.377Z,4.60
2023-05-19T22:17:37.081Z,5.97
2023-05-19T22:20:04.212Z,5.13
2023-05-19T22:22:33.731Z,5.30
2023-05-19T22:25:00.402Z,5.38
2023-05-19T22:27:27.118Z,4.38
2023-05-19T22:29:53.783Z,4.60
2023-05-19T22:32:20.510Z,4.68
2023-05-19T22:34:47.392Z,4.63
2023-05-19T22:37:14.157Z,5.18
2023-05-19T22:39:40.786Z,6.07
2023-05-19T22:42:07.563Z,5.72
2023-05-19T22:44:34.165Z,6.60
2023-05-19T22:47:00.838Z,5.70
2023-05-19T22:49:29.265Z,5.47
2023-05-19T22:51:55.902Z,5.60
2023-05-19T22:54:23.084Z,6.28
2023-05-19T22:56:49.803Z,6.78
2023-05-19T22:59:18.025Z,6.75
2023-05-19T23:01:46.529Z,6.88
2023-05-19T23:04:13.927Z,5.68
2023-05-19T23:06:40.900Z,5.85
2023-05-19T23:09:07.995Z,5.60
2023-05-19T23:11:35.822Z,5.63
2023-05-19T23:14:02.550Z,6.32
2023-05-19T23:16:29.376Z,6.75
2023-05-19T23:18:56.157Z,6.05
2023-05-19T23:21:22.988Z,5.97
2023-05-19T23:23:49.944Z,5.30
2023-05-19T23:26:16.609Z,5.47
2023-05-19T23:28:43.423Z,6.43
2023-05-19T23:31:10.384Z,6.00
2023-05-19T23:33:37.123Z,6.03
2023-05-19T23:36:07.703Z,7.47
2023-05-19T23:38:34.847Z,6.10
2023-05-19T23:41:01.633Z,5.50
2023-05-19T23:43:28.397Z,6.20
2023-05-19T23:45:57.643Z,5.95
2023-05-19T23:48:24.481Z,7.03
2023-05-19T23:50:51.301Z,6.05
2023-05-19T23:53:17.904Z,7.25
2023-05-19T23:55:44.582Z,5.82
2023-05-19T23:58:11.233Z,5.60
